Arcadia, Florida
Current Conditions -  °F | °C
As of 1:53 PM on Friday 31 Oct 2014 (Local Time) from KPGD Reporting Station
Clear Clear  
Wind Chill: 80°   Ceiling: Unl
Heat Index: 81°   Visibility: 10mi
Dew Point: 61°   Wind: 13mph
Humidity: 52%   Direction: 310°NW
Pressure: 29.85"   Gusts: NA
Location:  27.22°N, 81.86°W
Report Text: KPGD 311753Z 31011KT 10SM CLR 27/16 A2985 RMK AO2 SLP109 T02670161 10283 20206 58022
Loading
Personal Weather Stations






























Interactive Weather Map New forecast layout! Learn more

10-Day Weather Forecast

Advertisements
Track Severe Weather on mobile